Winstonville, Mississippi
Current Conditions -  °F | °C
As of 6:35 PM on Monday 22 Dec 2014 (Local Time) from KRNV Reporting Station
Overcast Overcast  
Wind Chill: 60°   Ceiling: 1600
Heat Index: 60°   Visibility: 10mi
Dew Point: 59°   Wind: 8mph
Humidity: 97%   Direction: 160°SSE
Pressure: 29.63"   Gusts: NA
Location:  33.91°N, 90.75°W
Report Text: KRNV 230035Z AUTO 16007KT 10SM OVC016 16/15 A2963 RMK AO2 T01550151
Loading
Personal Weather Stations






























Interactive Weather Map New forecast layout! Learn more

10-Day Weather Forecast

Advertisements
Track Severe Weather on mobile